Hlavní strana
METAR-TAF:

METAR-TAF

Letiště :

Southern Illinois Airport

Carbondale / Murphysboro, Illinois, Spojené státy americké

zeměpisná šířka: 37-46-59N, zeměpisná délka: 089-14-42W, výška: 125 m

Aktuální stav počasí

Zpráva byla vytvořena před 8 minutami, v 10:52 UTC
Severoseverozápadní vítr 4 kt
Teplota 0°C
Vlhkost vzduchu 86%
Tlak 1027 hPa
Viditelnost: 12.9 km
Jasno

METAR: KMDH 251052Z AUTO 34004KT 8SM CLR 00/M02 A3033 RMK AO2 SLP272 T00001022

Čas: 05:00 (11:00 UTC)


TAF: chybějící

Stav a předpovědi počasí z více než 4 000 letišť (zprávy METAR a TAF).

Červené a žluté tečky na mapě představují dostupné meteorologické stanice.

Když kurzor umístíte na tečku, zobrazí se název stanice.

Pak kliknutím zobrazíte stav a předpověď počasí.

Chcete-li změnit mapu, kliknutím na zelené tlačítko se znaménkem +mapu přiblížíte, kliknutím na zelené tlačítko se znaménkem – mapu oddálíte a kliknutím na zelené šipky přejdete na sousední mapy.


METAR-TAF: